Time;durP1;ratioP1;P1;durP2;ratioP2;P2;SDS_P1;SDS_P2;PMS_P1;PMS_P2;Temp;Humidity;BMP_temperature;BMP_pressure;BME280_temperature;BME280_humidity;BME280_pressure;Samples;Min_cycle;Max_cycle;Signal;HPM_P1;HPM_P2
2022/12/13 00:01:53;;;;;;;13.37;4.73;;;;;;;-145.69;100.00;52755.31;5094080;28;20198;-81
2022/12/13 00:04:22;;;;;;;14.30;4.80;;;;;;;-145.69;100.00;52745.41;5093814;28;20239;-81
2022/12/13 00:06:49;;;;;;;10.27;4.67;;;;;;;-145.69;100.00;52777.09;5093505;28;20235;-79
2022/12/13 00:09:18;;;;;;;11.77;4.70;;;;;;;-145.69;100.00;52769.19;5094325;28;20194;-81
2022/12/13 00:11:45;;;;;;;15.10;4.73;;;;;;;-145.69;100.00;52757.31;5094056;28;20289;-80
2022/12/13 00:14:15;;;;;;;12.37;5.37;;;;;;;-145.69;100.00;52741.47;5094006;28;20204;-81
2022/12/13 00:16:45;;;;;;;14.00;4.73;;;;;;;-145.69;100.00;52785.03;5094002;28;20552;-81
2022/12/13 00:19:13;;;;;;;11.60;5.50;;;;;;;-145.69;100.00;52737.50;5094023;28;20595;-81
2022/12/13 00:21:40;;;;;;;10.67;5.30;;;;;;;-145.69;100.00;52765.22;5093568;28;20205;-81
2022/12/13 00:24:08;;;;;;;10.97;5.30;;;;;;;-145.69;100.00;52743.44;5093829;28;20198;-81
2022/12/13 00:26:36;;;;;;;9.33;4.67;;;;;;;-145.69;100.00;52753.34;5093701;28;20225;-82
2022/12/13 00:29:04;;;;;;;10.13;4.93;;;;;;;-145.69;100.00;52771.16;5093359;28;20661;-81
2022/12/13 00:31:31;;;;;;;10.67;4.30;;;;;;;-145.69;100.00;52755.31;5093507;28;20201;-81
2022/12/13 00:33:58;;;;;;;12.53;5.53;;;;;;;-145.69;100.00;52725.63;5093498;28;20289;-81
2022/12/13 00:36:25;;;;;;;16.90;5.03;;;;;;;-145.69;100.00;52751.34;5093275;28;20240;-81
2022/12/13 00:38:59;;;;;;;10.57;4.77;;;;;;;-145.69;100.00;52737.50;5081003;28;20203;-81
2022/12/13 00:41:29;;;;;;;11.87;5.13;;;;;;;-145.69;100.00;52727.59;5073307;28;20248;-81
2022/12/13 00:43:57;;;;;;;15.67;4.87;;;;;;;-145.69;100.00;52717.69;5073209;28;20542;-81
2022/12/13 00:46:24;;;;;;;8.03;3.97;;;;;;;-145.69;100.00;52773.16;5085483;28;20229;-80
2022/12/13 00:48:54;;;;;;;10.37;4.80;;;;;;;-145.69;100.00;52715.72;5093078;28;20212;-81
2022/12/13 00:51:22;;;;;;;10.80;4.87;;;;;;;-145.69;100.00;52723.63;5093292;28;20259;-81
2022/12/13 00:53:50;;;;;;;11.40;5.00;;;;;;;-145.69;100.00;52745.41;5092813;28;20201;-82
2022/12/13 00:56:20;;;;;;;10.17;4.53;;;;;;;-145.69;100.00;52763.25;5093334;28;20236;-81
2022/12/13 00:58:48;;;;;;;14.47;4.87;;;;;;;-145.69;100.00;52751.34;5092585;28;20194;-80
2022/12/13 01:01:18;;;;;;;15.30;5.60;;;;;;;-145.69;100.00;52800.88;5092654;28;20251;-81
2022/12/13 01:03:45;;;;;;;16.40;5.00;;;;;;;-145.69;100.00;52777.09;5093191;28;20202;-81
2022/12/13 01:06:15;;;;;;;12.53;4.90;;;;;;;-145.69;100.00;52765.22;5091783;28;20218;-81
2022/12/13 01:08:41;;;;;;;11.67;5.00;;;;;;;-145.69;100.00;52751.34;5072625;28;20221;-81
2022/12/13 01:11:08;;;;;;;13.90;5.13;;;;;;;-145.69;100.00;52763.25;5090083;28;20653;-82
2022/12/13 01:13:35;;;;;;;17.07;5.03;;;;;;;-145.69;100.00;52790.97;5092661;28;20194;-81
2022/12/13 01:16:03;;;;;;;10.33;4.50;;;;;;;-145.69;100.00;52759.28;5093251;28;20206;-81
2022/12/13 01:18:32;;;;;;;11.50;4.80;;;;;;;-145.69;100.00;52767.19;5092850;28;20197;-81
2022/12/13 01:21:00;;;;;;;10.50;4.90;;;;;;;-145.69;100.00;52737.50;5093108;28;20198;-81
2022/12/13 01:23:27;;;;;;;12.77;5.30;;;;;;;-145.69;100.00;52792.94;5092896;28;20564;-81
2022/12/13 01:25:53;;;;;;;11.20;4.57;;;;;;;-145.69;100.00;52777.09;5092523;28;20688;-81
2022/12/13 01:28:20;;;;;;;8.17;3.80;;;;;;;-145.69;100.00;52753.34;5092684;28;20668;-81
2022/12/13 01:30:54;;;;;;;11.20;4.60;;;;;;;-145.69;100.00;52771.16;5092592;28;20193;-81
2022/12/13 01:33:21;;;;;;;13.03;4.40;;;;;;;-145.69;100.00;52804.84;5092942;28;20271;-81
2022/12/13 01:35:49;;;;;;;10.73;4.80;;;;;;;-145.69;100.00;52773.16;5092596;28;20236;-80
2022/12/13 01:38:16;;;;;;;12.97;4.43;;;;;;;-145.69;100.00;52789.00;5092490;28;20296;-80
2022/12/13 01:40:44;;;;;;;11.47;5.13;;;;;;;-145.69;100.00;52741.47;5088954;28;20209;-81
2022/12/13 01:43:12;;;;;;;10.73;4.83;;;;;;;-145.69;100.00;52749.38;5092626;28;20194;-81
2022/12/13 01:45:39;;;;;;;17.83;5.37;;;;;;;-145.69;100.00;52731.56;5092935;28;20573;-81
2022/12/13 01:48:09;;;;;;;7.50;4.50;;;;;;;-145.69;100.00;52741.47;5092717;28;20198;-81
2022/12/13 01:50:41;;;;;;;12.37;4.50;;;;;;;-145.69;100.00;52725.63;5092851;28;20208;-80
2022/12/13 01:53:14;;;;;;;11.37;4.43;;;;;;;-145.69;100.00;52775.13;5092105;28;20201;-81
2022/12/13 01:55:43;;;;;;;12.63;5.10;;;;;;;-145.69;100.00;52771.16;5092446;28;20190;-80
2022/12/13 01:58:12;;;;;;;13.07;4.97;;;;;;;-145.69;100.00;52739.47;5092720;28;20614;-81
2022/12/13 02:00:39;;;;;;;11.00;4.67;;;;;;;-145.69;100.00;52773.16;5092519;28;20201;-80
2022/12/13 02:03:06;;;;;;;8.27;3.97;;;;;;;-145.69;100.00;52787.00;5092281;28;20241;-80
2022/12/13 02:05:36;;;;;;;11.27;3.83;;;;;;;-145.69;100.00;52749.38;5092012;28;20251;-81
2022/12/13 02:08:05;;;;;;;13.40;4.50;;;;;;;-145.69;100.00;52729.56;5092320;28;20209;-80
2022/12/13 02:10:33;;;;;;;11.63;4.57;;;;;;;-145.69;100.00;52751.34;5092309;28;20194;-80
2022/12/13 02:13:00;;;;;;;8.33;3.97;;;;;;;-145.69;100.00;52731.56;5091775;28;20652;-80
2022/12/13 02:15:38;;;;;;;9.83;4.00;;;;;;;-145.69;100.00;52757.31;5092052;28;20678;-81
2022/12/13 02:18:19;;;;;;;11.70;4.37;;;;;;;-145.69;100.00;52729.56;5095026;28;20202;-82
2022/12/13 02:21:02;;;;;;;8.87;4.23;;;;;;;-145.69;100.00;52755.31;5095363;28;20560;-81
2022/12/13 02:23:56;;;;;;;7.50;3.93;;;;;;;-145.69;100.00;52719.66;5095595;28;20198;-81
2022/12/13 02:27:04;;;;;;;12.90;4.13;;;;;;;-145.69;100.00;52749.38;5095517;28;20228;-80
2022/12/13 02:30:15;;;;;;;7.63;3.50;;;;;;;-145.69;100.00;52800.88;5074466;28;20660;-81
2022/12/13 02:32:54;;;;;;;7.33;3.13;;;;;;;-145.69;100.00;52741.47;5095885;28;20202;-81
2022/12/13 02:35:26;;;;;;;6.73;3.27;;;;;;;-145.69;100.00;52765.22;5095609;28;20234;-81
2022/12/13 02:38:02;;;;;;;8.20;3.70;;;;;;;-145.69;100.00;52753.34;5095688;28;20198;-81
2022/12/13 02:40:33;;;;;;;7.03;3.60;;;;;;;-145.69;100.00;52715.72;5095693;28;20220;-81
2022/12/13 02:43:04;;;;;;;9.53;3.80;;;;;;;-145.69;100.00;52753.34;5095616;28;20198;-81
2022/12/13 02:45:34;;;;;;;7.10;3.43;;;;;;;-145.69;100.00;52765.22;5095818;28;20234;-81
2022/12/13 02:48:05;;;;;;;9.53;3.63;;;;;;;-145.69;100.00;52739.47;5095899;28;20296;-81
2022/12/13 02:50:33;;;;;;;9.07;4.10;;;;;;;-145.69;100.00;52769.19;5095249;28;20202;-81
2022/12/13 02:53:00;;;;;;;8.20;3.27;;;;;;;-145.69;100.00;52743.44;5095496;28;20229;-81
2022/12/13 02:55:27;;;;;;;10.77;4.13;;;;;;;-145.69;100.00;52755.31;5095251;28;20232;-81
2022/12/13 02:57:54;;;;;;;9.77;4.17;;;;;;;-145.69;100.00;52773.16;5094773;28;20204;-81
2022/12/13 03:00:26;;;;;;;7.50;3.83;;;;;;;-145.69;100.00;52773.16;5095363;28;20208;-81
2022/12/13 03:03:06;;;;;;;8.13;3.73;;;;;;;-145.69;100.00;52749.38;5095496;28;20198;-81
2022/12/13 03:08:28;;;;;;;10.23;3.33;;;;;;;-145.69;100.00;52745.41;5094541;28;20201;-81
2022/12/13 03:11:05;;;;;;;9.07;4.10;;;;;;;-145.69;100.00;52771.16;5095172;28;20656;-81
2022/12/13 03:13:39;;;;;;;11.07;4.23;;;;;;;-145.69;100.00;52757.31;5094967;28;20201;-81
2022/12/13 03:16:13;;;;;;;9.90;3.43;;;;;;;-145.69;100.00;52751.34;5094776;28;20220;-81
2022/12/13 03:18:41;;;;;;;10.13;4.20;;;;;;;-145.69;100.00;52753.34;5094643;28;20208;-80
2022/12/13 03:21:09;;;;;;;11.93;4.00;;;;;;;-145.69;100.00;52798.91;5094945;28;20258;-81
2022/12/13 03:23:37;;;;;;;8.47;3.50;;;;;;;-145.69;100.00;52812.75;5094695;28;20194;-81
2022/12/13 03:26:09;;;;;;;9.77;4.00;;;;;;;-145.69;100.00;52769.19;5094886;28;20317;-81
2022/12/13 03:28:36;;;;;;;11.40;3.90;;;;;;;-145.69;100.00;52739.47;5093820;28;20368;-81
2022/12/13 03:31:02;;;;;;;7.83;3.83;;;;;;;-145.69;100.00;52753.34;5094762;28;20202;-81
2022/12/13 03:33:29;;;;;;;6.50;3.47;;;;;;;-145.69;100.00;52771.16;5094953;28;20289;-81
2022/12/13 03:35:57;;;;;;;11.27;3.90;;;;;;;-145.69;100.00;52745.41;5094735;28;20230;-81
2022/12/13 03:38:25;;;;;;;8.20;3.87;;;;;;;-145.69;100.00;52769.19;5094065;28;20194;-81
2022/12/13 03:40:54;;;;;;;9.27;3.67;;;;;;;-145.69;100.00;52761.25;5094600;28;20194;-81
2022/12/13 03:43:20;;;;;;;9.47;3.77;;;;;;;-145.69;100.00;52737.50;5094263;28;20213;-81
2022/12/13 03:45:47;;;;;;;10.77;4.00;;;;;;;-145.69;100.00;52781.06;5094397;28;20225;-81
2022/12/13 03:48:14;;;;;;;12.87;4.23;;;;;;;-145.69;100.00;52777.09;5084054;28;20204;-81
2022/12/13 03:50:40;;;;;;;8.80;3.90;;;;;;;-145.69;100.00;52785.03;5074369;28;20209;-81
2022/12/13 03:53:08;;;;;;;11.27;3.93;;;;;;;-145.69;100.00;52761.25;5083023;28;20281;-81
2022/12/13 03:55:35;;;;;;;8.17;3.80;;;;;;;-145.69;100.00;52763.25;5093076;28;20679;-81
2022/12/13 03:58:01;;;;;;;7.70;3.63;;;;;;;-145.69;100.00;52767.19;5094135;28;20194;-81
2022/12/13 04:00:28;;;;;;;8.60;3.10;;;;;;;-145.69;100.00;52767.19;5093364;28;20292;-80
2022/12/13 04:02:54;;;;;;;6.53;3.70;;;;;;;-145.69;100.00;52741.47;5094469;28;20198;-81
2022/12/13 04:05:21;;;;;;;6.30;3.20;;;;;;;-145.69;100.00;52767.19;5090745;28;20222;-81
2022/12/13 04:07:48;;;;;;;8.60;3.40;;;;;;;-145.69;100.00;52737.50;5092346;28;20198;-81
2022/12/13 04:10:16;;;;;;;13.27;4.30;;;;;;;-145.69;100.00;52725.63;5093907;28;20281;-80
2022/12/13 04:15:27;;;;;;;6.03;2.97;;;;;;;-145.69;100.00;52729.56;5093959;28;20224;-80
2022/12/13 04:17:53;;;;;;;15.67;4.37;;;;;;;-145.69;100.00;52755.31;5093238;28;20198;-81
2022/12/13 04:20:20;;;;;;;8.40;4.47;;;;;;;-145.69;100.00;52761.25;5093729;28;20194;-81
2022/12/13 04:22:46;;;;;;;6.33;3.10;;;;;;;-145.69;100.00;52731.56;5093670;28;20199;-80
2022/12/13 04:25:13;;;;;;;9.57;3.83;;;;;;;-145.69;100.00;52761.25;5093348;28;20205;-80
2022/12/13 04:27:41;;;;;;;7.57;3.50;;;;;;;-145.69;100.00;52767.19;5093059;28;20195;-81
2022/12/13 04:30:09;;;;;;;8.07;3.73;;;;;;;-145.69;100.00;52787.00;5093487;28;20202;-80
2022/12/13 04:32:35;;;;;;;8.37;3.90;;;;;;;-145.69;100.00;52761.25;5093154;28;20700;-80
2022/12/13 04:35:02;;;;;;;11.57;4.10;;;;;;;-145.69;100.00;52753.34;5093480;28;20229;-80
2022/12/13 04:37:28;;;;;;;10.20;3.80;;;;;;;-145.69;100.00;52755.31;5092831;28;20201;-80
2022/12/13 04:39:55;;;;;;;9.10;3.77;;;;;;;-145.69;100.00;52757.31;5091457;28;20190;-81
2022/12/13 04:42:22;;;;;;;8.77;4.10;;;;;;;-145.69;100.00;52757.31;5093062;28;20191;-81
2022/12/13 04:44:50;;;;;;;14.40;4.30;;;;;;;-145.69;100.00;52753.34;5093626;28;20198;-81
2022/12/13 04:47:16;;;;;;;9.37;4.33;;;;;;;-145.69;100.00;52753.34;5093299;28;20233;-81
2022/12/13 04:49:43;;;;;;;5.57;2.90;;;;;;;-145.69;100.00;52773.16;5093337;28;20198;-81
2022/12/13 04:52:10;;;;;;;7.03;3.87;;;;;;;-145.69;100.00;52721.66;5092929;28;20201;-81
2022/12/13 04:54:37;;;;;;;8.87;3.97;;;;;;;-145.69;100.00;52719.66;5093154;28;20194;-81
2022/12/13 04:57:07;;;;;;;7.73;3.97;;;;;;;-145.69;100.00;52767.19;5093187;28;20205;-81
2022/12/13 04:59:34;;;;;;;10.63;4.03;;;;;;;-145.69;100.00;52781.06;5092342;28;20269;-82
2022/12/13 05:02:03;;;;;;;7.30;3.50;;;;;;;-145.69;100.00;52753.34;5093149;28;20202;-81
2022/12/13 05:04:30;;;;;;;9.53;3.73;;;;;;;-145.69;100.00;52747.41;5093185;28;20201;-81
2022/12/13 05:06:57;;;;;;;5.70;3.20;;;;;;;-145.69;100.00;52773.16;5093036;28;20262;-81
2022/12/13 05:09:23;;;;;;;12.60;3.70;;;;;;;-145.69;100.00;52737.50;5093143;28;20271;-81
2022/12/13 05:11:50;;;;;;;7.10;3.57;;;;;;;-145.69;100.00;52739.47;5093471;28;20202;-81
2022/12/13 05:14:17;;;;;;;9.27;4.10;;;;;;;-145.69;100.00;52751.34;5092600;28;20649;-80
2022/12/13 05:16:44;;;;;;;6.13;3.03;;;;;;;-145.69;100.00;52733.53;5092274;28;20669;-80
2022/12/13 05:19:11;;;;;;;6.50;3.17;;;;;;;-145.69;100.00;52767.19;5092830;28;20588;-80
2022/12/13 05:21:38;;;;;;;9.10;3.73;;;;;;;-145.69;100.00;52765.22;5092305;28;20289;-80
2022/12/13 05:24:06;;;;;;;9.77;3.77;;;;;;;-145.69;100.00;52787.00;5092574;28;20198;-81
2022/12/13 05:26:35;;;;;;;7.77;3.60;;;;;;;-145.69;100.00;52739.47;5092635;28;20561;-81
2022/12/13 05:29:02;;;;;;;10.10;3.83;;;;;;;-145.69;100.00;52757.31;5092684;28;20204;-81
2022/12/13 05:31:29;;;;;;;11.73;3.70;;;;;;;-145.69;100.00;52779.09;5092560;28;20202;-80
2022/12/13 05:33:55;;;;;;;11.10;4.27;;;;;;;-145.69;100.00;52755.31;5092562;28;20209;-80
2022/12/13 05:36:25;;;;;;;7.33;3.40;;;;;;;-145.69;100.00;52735.50;5092266;28;20245;-80
2022/12/13 05:38:54;;;;;;;7.80;3.33;;;;;;;-145.69;100.00;52759.28;5088377;28;20281;-81
2022/12/13 05:41:24;;;;;;;6.27;3.27;;;;;;;-145.69;100.00;52743.44;5072335;28;20249;-80
2022/12/13 05:43:50;;;;;;;10.37;3.97;;;;;;;-145.69;100.00;52773.16;5072249;28;20203;-81
2022/12/13 05:46:17;;;;;;;9.10;3.37;;;;;;;-145.69;100.00;52777.09;5080217;28;20214;-81
2022/12/13 05:48:45;;;;;;;9.03;3.60;;;;;;;-145.69;100.00;52747.41;5092458;28;20652;-81
2022/12/13 05:51:15;;;;;;;7.73;3.57;;;;;;;-145.69;100.00;52731.56;5091968;28;20585;-81
2022/12/13 05:53:45;;;;;;;11.75;4.63;;;;;;;-145.69;100.00;52733.53;5095456;28;20448;-81
2022/12/13 05:56:14;;;;;;;7.43;3.77;;;;;;;-145.69;100.00;52777.09;5096446;28;20233;-81
2022/12/13 05:58:41;;;;;;;11.50;3.87;;;;;;;-145.69;100.00;52739.47;5096078;28;20199;-81
2022/12/13 06:01:10;;;;;;;6.73;3.37;;;;;;;-145.69;100.00;52731.56;5095944;28;20200;-80
2022/12/13 06:03:36;;;;;;;7.43;3.27;;;;;;;-145.69;100.00;52771.16;5096155;28;20613;-81
2022/12/13 06:06:04;;;;;;;11.65;4.18;;;;;;;-145.69;100.00;52761.25;5095927;28;20548;-80
2022/12/13 06:08:31;;;;;;;6.90;3.50;;;;;;;-145.69;100.00;52781.06;5095691;28;20195;-81
2022/12/13 06:11:02;;;;;;;8.50;3.47;;;;;;;-145.69;100.00;52771.16;5096377;28;20293;-81
2022/12/13 06:13:32;;;;;;;9.77;3.33;;;;;;;-145.69;100.00;52753.34;5095536;28;20657;-80
2022/12/13 06:16:01;;;;;;;6.47;3.47;;;;;;;-145.69;100.00;52753.34;5095927;28;20356;-81
2022/12/13 06:18:28;;;;;;;8.00;3.67;;;;;;;-145.69;100.00;52798.91;5096248;28;20202;-81
2022/12/13 06:21:00;;;;;;;8.70;3.97;;;;;;;-145.69;100.00;52765.22;5096152;28;20194;-80
2022/12/13 06:23:27;;;;;;;9.03;3.87;;;;;;;-145.69;100.00;52765.22;5095949;28;20205;-82
2022/12/13 06:25:54;;;;;;;7.87;3.17;;;;;;;-145.69;100.00;52745.41;5095547;28;20732;-81
2022/12/13 06:28:22;;;;;;;5.50;3.03;;;;;;;-145.69;100.00;52771.16;5095872;28;20194;-81
2022/12/13 06:30:54;;;;;;;8.30;3.70;;;;;;;-145.69;100.00;52753.34;5096186;28;20287;-81
2022/12/13 06:33:21;;;;;;;6.23;3.47;;;;;;;-145.69;100.00;52753.34;5095806;28;20205;-81
2022/12/13 06:35:47;;;;;;;6.17;3.10;;;;;;;-145.69;100.00;52765.22;5095623;28;20682;-82
2022/12/13 06:38:14;;;;;;;8.20;3.70;;;;;;;-145.69;100.00;52743.44;5095449;28;20198;-81
2022/12/13 06:40:43;;;;;;;8.97;3.80;;;;;;;-145.69;100.00;52789.00;5095538;28;20198;-81
2022/12/13 06:43:10;;;;;;;20.77;3.50;;;;;;;-145.69;100.00;52749.38;5095280;28;20213;-81
2022/12/13 06:45:40;;;;;;;6.37;3.20;;;;;;;-145.69;100.00;52804.84;5095775;28;20645;-81
2022/12/13 06:48:07;;;;;;;7.80;3.50;;;;;;;-145.69;100.00;52777.09;5095823;28;20282;-81
2022/12/13 06:50:33;;;;;;;9.50;3.43;;;;;;;-145.69;100.00;52725.63;5095705;28;20324;-81
2022/12/13 06:53:01;;;;;;;6.90;3.63;;;;;;;-145.69;100.00;52773.16;5095368;28;20194;-82
2022/12/13 06:55:28;;;;;;;5.73;3.03;;;;;;;-145.69;100.00;52769.19;5095440;28;20208;-82
2022/12/13 06:57:56;;;;;;;9.83;3.80;;;;;;;-145.69;100.00;52739.47;5095410;28;20206;-82
2022/12/13 07:00:23;;;;;;;7.53;3.67;;;;;;;-145.69;100.00;52777.09;5095502;28;20203;-82
2022/12/13 07:02:53;;;;;;;9.90;4.70;;;;;;;-145.69;100.00;52753.34;5094843;28;20281;-82
2022/12/13 07:05:20;;;;;;;5.20;2.90;;;;;;;-145.69;100.00;52733.53;5095014;28;20205;-83
2022/12/13 07:07:46;;;;;;;8.73;3.80;;;;;;;-145.69;100.00;52761.25;5095051;28;20226;-82
2022/12/13 07:10:13;;;;;;;7.23;3.37;;;;;;;-145.69;100.00;52759.28;5095601;28;20213;-83
2022/12/13 07:12:40;;;;;;;6.80;3.50;;;;;;;-145.69;100.00;52757.31;5095229;28;20217;-81
2022/12/13 07:15:07;;;;;;;6.87;3.50;;;;;;;-145.69;100.00;52733.53;5095044;28;20201;-81
2022/12/13 07:17:34;;;;;;;6.33;3.20;;;;;;;-145.69;100.00;52783.06;5094681;28;20384;-81
2022/12/13 07:20:06;;;;;;;8.07;3.40;;;;;;;-145.69;100.00;52725.63;5094784;28;20221;-81
2022/12/13 07:22:33;;;;;;;7.67;3.40;;;;;;;-145.69;100.00;52745.41;5094668;28;20198;-80
2022/12/13 07:24:59;;;;;;;7.37;3.10;;;;;;;-145.69;100.00;52757.31;5094726;28;20205;-81
2022/12/13 07:27:26;;;;;;;6.87;3.50;;;;;;;-145.69;100.00;52761.25;5094355;28;20230;-80
2022/12/13 07:29:52;;;;;;;9.00;3.73;;;;;;;-145.69;100.00;52773.16;5094566;28;20190;-81
2022/12/13 07:32:19;;;;;;;7.80;4.10;;;;;;;-145.69;100.00;52745.41;5094402;28;20194;-81
2022/12/13 07:34:46;;;;;;;8.07;3.80;;;;;;;-145.69;100.00;52777.09;5094315;28;21446;-80
2022/12/13 07:37:14;;;;;;;7.93;3.10;;;;;;;-145.69;100.00;52773.16;5093896;28;20209;-80
2022/12/13 07:39:41;;;;;;;8.50;3.57;;;;;;;-145.69;100.00;52723.63;5094896;28;20230;-80
2022/12/13 07:42:07;;;;;;;8.10;3.17;;;;;;;-145.69;100.00;52755.31;5091890;28;20198;-80
2022/12/13 07:44:34;;;;;;;8.07;3.60;;;;;;;-145.69;100.00;52773.16;5094256;28;20212;-81
2022/12/13 07:47:00;;;;;;;5.83;3.30;;;;;;;-145.69;100.00;52747.41;5094179;28;20237;-81
2022/12/13 07:49:30;;;;;;;11.60;3.50;;;;;;;-145.69;100.00;52783.06;5093988;28;20202;-80
2022/12/13 07:51:57;;;;;;;11.67;3.80;;;;;;;-145.69;100.00;52785.03;5094348;28;20198;-81
2022/12/13 07:54:25;;;;;;;7.47;3.73;;;;;;;-145.69;100.00;52741.47;5094111;28;20584;-81
2022/12/13 07:56:54;;;;;;;7.80;3.50;;;;;;;-145.69;100.00;52757.31;5094139;28;20206;-81
2022/12/13 07:59:20;;;;;;;6.90;3.40;;;;;;;-145.69;99.93;52751.34;5094197;28;20707;-81
2022/12/13 08:01:47;;;;;;;9.00;3.20;;;;;;;-145.69;100.00;52789.00;5093293;28;20729;-83
2022/12/13 08:04:14;;;;;;;6.83;3.20;;;;;;;-145.69;99.91;52751.34;5094163;28;20213;-82
2022/12/13 08:06:40;;;;;;;9.35;4.75;;;;;;;-145.69;99.98;52737.50;5093022;28;20456;-83
2022/12/13 08:09:07;;;;;;;10.23;4.43;;;;;;;-145.69;100.00;52757.31;5094507;28;20201;-82
2022/12/13 08:11:35;;;;;;;9.27;4.00;;;;;;;-145.69;100.00;52737.50;5094437;28;20202;-82
2022/12/13 08:14:01;;;;;;;6.83;3.50;;;;;;;-145.69;99.51;52749.38;5093823;28;20205;-82
2022/12/13 08:16:28;;;;;;;6.83;3.43;;;;;;;-145.69;97.82;52723.63;5093211;28;20200;-82
2022/12/13 08:18:57;;;;;;;9.83;4.70;;;;;;;-145.69;96.72;52745.41;5094245;28;20289;-83
2022/12/13 08:21:24;;;;;;;7.97;3.67;;;;;;;-145.69;98.29;52731.56;5094113;28;20194;-83
2022/12/13 08:23:50;;;;;;;9.70;3.67;;;;;;;-145.69;95.46;52735.50;5094244;28;20277;-82
2022/12/13 08:26:17;;;;;;;7.80;3.70;;;;;;;-145.69;96.76;52755.31;5094336;28;20280;-83
2022/12/13 08:28:49;;;;;;;8.50;4.20;;;;;;;-145.69;95.28;52761.25;5094504;28;20359;-81
2022/12/13 08:31:16;;;;;;;8.70;3.30;;;;;;;-145.69;95.63;52755.31;5093473;28;20198;-82
2022/12/13 08:33:45;;;;;;;6.60;3.30;;;;;;;-145.69;96.59;52713.72;5094294;28;20205;-82
2022/12/13 08:36:14;;;;;;;5.87;3.17;;;;;;;-145.69;94.80;52721.66;5093575;28;20230;-83
2022/12/13 08:38:41;;;;;;;14.60;3.63;;;;;;;-145.69;93.72;52751.34;5094382;28;20230;-83
2022/12/13 08:41:08;;;;;;;6.97;3.50;;;;;;;-145.69;94.13;52757.31;5094677;28;20209;-83
2022/12/13 08:43:43;;;;;;;6.60;3.57;;;;;;;-145.69;93.77;52745.41;5094355;28;20202;-84
2022/12/13 08:46:10;;;;;;;9.63;3.50;;;;;;;-145.69;93.75;52765.22;5094619;28;20189;-85
2022/12/13 08:48:39;;;;;;;8.60;3.83;;;;;;;-145.69;92.07;52753.34;5094323;28;20228;-83
2022/12/13 08:51:07;;;;;;;7.93;3.40;;;;;;;-145.69;91.24;52753.34;5094251;28;20214;-84
2022/12/13 08:53:35;;;;;;;8.50;3.97;;;;;;;-145.69;92.30;52737.50;5093802;28;20198;-83
2022/12/13 08:56:02;;;;;;;7.33;3.80;;;;;;;-145.69;93.48;52753.34;5096053;28;20288;-86
2022/12/13 08:58:29;;;;;;;9.83;3.50;;;;;;;-145.69;90.46;52761.25;5094038;28;20218;-86
2022/12/13 09:00:56;;;;;;;8.97;3.80;;;;;;;-145.69;90.22;52725.63;5093198;28;20569;-83
2022/12/13 09:03:24;;;;;;;11.67;4.37;;;;;;;-145.69;89.43;52763.25;5093883;28;20198;-85
2022/12/13 09:05:50;;;;;;;6.37;3.30;;;;;;;-145.69;89.04;52745.41;5093293;28;20201;-83
2022/12/13 09:08:17;;;;;;;7.97;3.57;;;;;;;-145.69;88.90;52713.72;5093110;28;20230;-84
2022/12/13 09:10:44;;;;;;;7.87;3.00;;;;;;;-145.69;85.92;52727.59;5092867;28;20652;-82
2022/12/13 09:13:11;;;;;;;6.30;3.20;;;;;;;-145.69;85.60;52759.28;5093248;28;20193;-82
2022/12/13 09:15:39;;;;;;;7.00;3.30;;;;;;;-145.69;87.11;52733.53;5092741;28;20296;-82
2022/12/13 09:18:06;;;;;;;6.73;3.50;;;;;;;-145.69;86.80;52717.69;5092726;28;20296;-84
2022/12/13 09:20:36;;;;;;;7.00;3.07;;;;;;;-145.69;83.24;52735.50;5093518;28;20569;-85
2022/12/13 09:23:04;;;;;;;8.43;3.30;;;;;;;-145.69;84.37;52737.50;5094412;28;20232;-86
2022/12/13 09:25:32;;;;;;;7.73;3.10;;;;;;;-145.69;84.17;52777.09;5092789;28;20248;-84
2022/12/13 09:28:00;;;;;;;7.50;3.10;;;;;;;-145.69;84.85;52727.59;5096003;28;20303;-84
2022/12/13 09:30:27;;;;;;;6.77;2.87;;;;;;;-145.69;85.57;52733.53;5097277;28;20205;-83
2022/12/13 09:32:55;;;;;;;6.27;3.27;;;;;;;-145.69;82.37;52735.50;5096707;28;20194;-82
2022/12/13 09:35:22;;;;;;;7.60;3.40;;;;;;;-145.69;83.92;52739.47;5096916;28;20321;-81
2022/12/13 09:37:49;;;;;;;7.83;3.60;;;;;;;-145.69;83.31;52761.25;5080871;28;20207;-80
2022/12/13 09:40:20;;;;;;;8.17;3.30;;;;;;;-145.69;82.71;52737.50;5076589;28;20199;-82
2022/12/13 09:42:50;;;;;;;11.60;4.27;;;;;;;-145.69;82.58;52749.38;5076773;28;20279;-82
2022/12/13 09:45:17;;;;;;;6.20;3.17;;;;;;;-145.69;81.72;52733.53;5084239;28;20281;-80
2022/12/13 09:47:46;;;;;;;6.83;3.13;;;;;;;-145.69;84.53;52739.47;5089439;28;20654;-82
2022/12/13 09:50:19;;;;;;;7.47;3.50;;;;;;;-145.69;85.44;52711.75;5096980;28;20202;-87
2022/12/13 09:52:46;;;;;;;6.90;3.30;;;;;;;-145.69;83.67;52715.72;5097981;28;20202;-83
2022/12/13 09:55:23;;;;;;;7.87;3.43;;;;;;;-145.69;84.43;52745.41;5096543;28;20194;-83
2022/12/13 09:57:50;;;;;;;4.53;2.93;;;;;;;-145.69;83.36;52699.88;5096515;28;20228;-83
2022/12/13 10:00:19;;;;;;;8.47;3.00;;;;;;;-145.69;83.06;52723.63;5096245;28;20202;-83
2022/12/13 10:02:48;;;;;;;7.37;3.10;;;;;;;-145.69;83.73;52670.16;5097354;28;20621;-83
2022/12/13 10:05:20;;;;;;;9.50;3.50;;;;;;;-145.69;82.07;52741.47;5096737;28;20267;-82
2022/12/13 10:07:47;;;;;;;6.73;3.30;;;;;;;-145.69;81.18;52682.03;5097880;28;20738;-85
2022/12/13 10:10:14;;;;;;;6.70;3.10;;;;;;;-145.69;81.91;52731.56;5096653;28;20212;-83
2022/12/13 10:12:44;;;;;;;5.73;3.13;;;;;;;-145.69;81.42;52751.34;5096574;28;20198;-81
2022/12/13 10:15:15;;;;;;;7.67;3.13;;;;;;;-145.69;81.86;52757.31;5096717;28;20581;-82
2022/12/13 10:17:47;;;;;;;5.83;2.97;;;;;;;-145.69;84.75;52707.78;5097146;28;20887;-86
2022/12/13 10:20:17;;;;;;;6.10;2.93;;;;;;;-145.69;82.84;52713.72;5096725;28;20196;-83
2022/12/13 10:22:44;;;;;;;5.87;3.07;;;;;;;-145.69;83.08;52765.22;5096443;28;20194;-84
2022/12/13 10:25:11;;;;;;;5.77;2.83;;;;;;;-145.69;79.95;52737.50;5096155;28;20190;-86
2022/12/13 10:27:40;;;;;;;7.70;2.77;;;;;;;-145.69;81.13;52705.81;5096828;28;20316;-84
2022/12/13 10:30:10;;;;;;;6.07;3.00;;;;;;;-145.69;80.62;52701.84;5096662;28;20237;-84
2022/12/13 10:32:45;;;;;;;11.30;3.50;;;;;;;-145.69;83.26;52674.13;5097048;28;20202;-85
2022/12/13 10:35:22;;;;;;;5.53;2.70;;;;;;;-145.69;79.69;52699.88;5097237;28;20324;-84
2022/12/13 10:37:49;;;;;;;6.47;3.43;;;;;;;-145.69;78.58;52717.69;5096928;28;20205;-84
2022/12/13 10:40:27;;;;;;;8.50;3.57;;;;;;;-145.69;79.21;52699.88;5096013;28;20572;-82
2022/12/13 10:43:08;;;;;;;5.20;2.80;;;;;;;-145.69;79.48;52735.50;5096601;28;20281;-82
2022/12/13 10:45:36;;;;;;;7.57;3.30;;;;;;;-145.69;81.13;52713.72;5095367;28;20197;-83
2022/12/13 10:48:03;;;;;;;6.67;3.07;;;;;;;-145.69;79.17;52703.81;5095407;28;20692;-81
2022/12/13 10:50:30;;;;;;;5.63;2.80;;;;;;;-145.69;79.00;52729.56;5095010;28;20194;-83
2022/12/13 10:52:59;;;;;;;6.37;2.80;;;;;;;-145.69;76.14;52703.81;5095109;28;20551;-80
2022/12/13 10:55:29;;;;;;;10.37;3.37;;;;;;;-145.69;79.17;52701.84;5095351;28;20255;-78
2022/12/13 10:57:59;;;;;;;6.13;2.80;;;;;;;-145.69;76.15;52769.19;5095496;28;20217;-82
2022/12/13 11:00:38;;;;;;;13.97;5.60;;;;;;;-145.69;80.80;52701.84;5095434;28;20569;-83
2022/12/13 11:03:05;;;;;;;13.17;6.00;;;;;;;-145.69;80.42;52713.72;5094440;28;20288;-80
2022/12/13 11:05:35;;;;;;;6.03;2.70;;;;;;;-145.69;73.77;52699.88;5094743;28;20202;-82
2022/12/13 11:08:14;;;;;;;6.90;3.13;;;;;;;-145.69;74.54;52678.09;5095031;28;20222;-83
2022/12/13 11:10:41;;;;;;;8.73;3.57;;;;;;;-145.69;72.07;52717.69;5095014;28;20193;-85
2022/12/13 11:13:08;;;;;;;7.50;3.43;;;;;;;-145.69;73.55;52691.94;5094974;28;20202;-84
2022/12/13 11:15:38;;;;;;;4.73;2.70;;;;;;;-145.69;70.85;52693.94;5094754;28;20226;-83
2022/12/13 11:18:07;;;;;;;13.00;3.33;;;;;;;-145.69;73.73;52662.22;5095322;28;20292;-85
2022/12/13 11:20:36;;;;;;;11.63;3.90;;;;;;;-145.69;74.59;52699.88;5094813;28;20663;-82
2022/12/13 11:23:06;;;;;;;11.33;5.13;;;;;;;-145.69;76.33;52703.81;5094847;28;20190;-84